Time;durP1;ratioP1;P1;durP2;ratioP2;P2;SDS_P1;SDS_P2;PMS_P1;PMS_P2;Temp;Humidity;BMP_temperature;BMP_pressure;BME280_temperature;BME280_humidity;BME280_pressure;Samples;Min_cycle;Max_cycle;Signal;HPM_P1;HPM_P2
2021/09/16 00:01:52;;;;;;;3.93;3.03;;;17.40;99.90;;;;;;495126;240;28799;-72
2021/09/16 00:03:53;;;;;;;3.57;3.27;;;17.40;99.90;;;;;;495145;240;28897;-69
2021/09/16 00:05:54;;;;;;;3.80;3.50;;;17.50;99.90;;;;;;495109;240;29374;-72
2021/09/16 00:07:56;;;;;;;3.57;3.27;;;17.40;99.90;;;;;;495143;240;29266;-72
2021/09/16 00:09:57;;;;;;;3.80;3.47;;;17.40;99.90;;;;;;495114;240;29352;-72
2021/09/16 00:11:59;;;;;;;3.90;3.60;;;17.40;99.90;;;;;;495127;240;29439;-73
2021/09/16 00:13:59;;;;;;;4.80;2.80;;;17.10;99.90;;;;;;495129;240;28834;-71
2021/09/16 00:16:01;;;;;;;3.03;2.83;;;17.00;99.90;;;;;;495152;240;28804;-72
2021/09/16 00:18:02;;;;;;;4.10;3.80;;;16.90;99.90;;;;;;495148;240;28842;-72
2021/09/16 00:20:03;;;;;;;4.53;4.13;;;16.80;99.90;;;;;;495196;240;28854;-70
2021/09/16 00:22:04;;;;;;;5.20;4.70;;;16.60;99.90;;;;;;495195;240;28909;-72
2021/09/16 00:24:06;;;;;;;4.93;4.50;;;16.50;99.90;;;;;;496195;240;28751;-72
2021/09/16 00:26:07;;;;;;;4.90;4.43;;;16.40;99.90;;;;;;496131;240;28804;-72
2021/09/16 00:28:08;;;;;;;4.60;4.03;;;16.40;99.90;;;;;;496136;240;28763;-70
2021/09/16 00:30:10;;;;;;;4.53;4.13;;;16.50;99.90;;;;;;495114;240;29286;-72
2021/09/16 00:32:11;;;;;;;3.53;3.23;;;16.40;99.90;;;;;;495127;240;29438;-72
2021/09/16 00:34:12;;;;;;;4.40;4.00;;;16.50;99.90;;;;;;495143;240;29294;-71
2021/09/16 00:36:13;;;;;;;4.00;3.70;;;16.40;99.90;;;;;;495154;240;29178;-71
2021/09/16 00:38:14;;;;;;;6.10;5.60;;;16.40;99.90;;;;;;495133;240;28793;-70
2021/09/16 00:40:16;;;;;;;7.10;6.40;;;16.30;99.90;;;;;;495153;240;28842;-69
2021/09/16 00:42:17;;;;;;;6.10;5.50;;;16.10;99.90;;;;;;495170;240;28798;-71
2021/09/16 00:44:18;;;;;;;6.77;6.10;;;16.10;99.90;;;;;;495168;240;28838;-70
2021/09/16 00:46:19;;;;;;;9.17;6.50;;;16.00;99.90;;;;;;495109;240;29213;-71
2021/09/16 00:48:21;;;;;;;9.20;8.30;;;15.90;99.90;;;;;;495147;240;28823;-71
2021/09/16 00:50:22;;;;;;;9.23;8.13;;;15.70;99.90;;;;;;495178;240;28856;-70
2021/09/16 00:52:23;;;;;;;10.40;8.00;;;15.70;99.90;;;;;;495197;240;28918;-69
2021/09/16 00:54:24;;;;;;;7.80;7.10;;;15.80;99.90;;;;;;495182;240;29317;-70
2021/09/16 00:56:26;;;;;;;6.33;5.73;;;15.80;99.90;;;;;;495139;240;29529;-70
2021/09/16 00:58:27;;;;;;;7.00;6.00;;;15.80;99.90;;;;;;495162;240;29273;-70
2021/09/16 01:00:28;;;;;;;8.30;6.27;;;15.90;99.90;;;;;;495125;240;29354;-71
2021/09/16 01:02:29;;;;;;;6.83;6.23;;;15.90;99.90;;;;;;495148;240;28821;-72
2021/09/16 01:04:31;;;;;;;6.67;6.00;;;16.00;99.90;;;;;;495146;240;28846;-72
2021/09/16 01:06:32;;;;;;;7.93;7.13;;;15.90;99.90;;;;;;495110;240;28931;-71
2021/09/16 01:08:33;;;;;;;8.53;7.63;;;15.80;99.90;;;;;;495153;240;28799;-69
2021/09/16 01:10:34;;;;;;;10.10;7.73;;;15.80;99.90;;;;;;495134;240;28849;-69
2021/09/16 01:12:36;;;;;;;8.57;7.60;;;15.80;99.90;;;;;;495172;240;28407;-70
2021/09/16 01:14:37;;;;;;;6.73;6.13;;;15.80;99.90;;;;;;495139;240;28842;-70
2021/09/16 01:16:38;;;;;;;5.83;5.33;;;15.90;99.90;;;;;;494994;240;28869;-69
2021/09/16 01:18:39;;;;;;;8.30;7.10;;;15.90;99.90;;;;;;495166;240;29379;-72
2021/09/16 01:20:41;;;;;;;7.80;7.10;;;15.80;99.90;;;;;;495122;240;29338;-71
2021/09/16 01:22:42;;;;;;;7.90;6.20;;;15.90;99.90;;;;;;495151;240;28963;-69
2021/09/16 01:24:43;;;;;;;6.80;6.10;;;16.00;99.90;;;;;;495150;240;29409;-70
2021/09/16 01:26:44;;;;;;;12.17;7.13;;;15.90;99.90;;;;;;495133;240;28750;-69
2021/09/16 01:28:46;;;;;;;8.00;7.20;;;15.80;99.90;;;;;;495131;240;28899;-71
2021/09/16 01:30:47;;;;;;;7.73;6.97;;;15.80;99.90;;;;;;495090;240;28936;-72
2021/09/16 01:32:48;;;;;;;7.00;6.40;;;15.90;99.90;;;;;;495107;240;28847;-72
2021/09/16 01:34:49;;;;;;;6.60;5.90;;;16.00;99.90;;;;;;495098;240;28928;-70
2021/09/16 01:36:51;;;;;;;7.47;6.47;;;16.00;99.90;;;;;;495107;240;28861;-70
2021/09/16 01:38:52;;;;;;;7.47;5.80;;;16.00;99.90;;;;;;495146;240;28817;-70
2021/09/16 01:40:54;;;;;;;7.80;6.80;;;16.00;99.90;;;;;;495132;240;28862;-69
2021/09/16 01:42:54;;;;;;;7.77;6.93;;;15.90;99.90;;;;;;495074;240;30057;-70
2021/09/16 01:44:56;;;;;;;8.67;7.30;;;15.90;99.90;;;;;;495163;240;29255;-72
2021/09/16 01:46:57;;;;;;;8.20;7.40;;;15.80;99.90;;;;;;495134;240;29381;-71
2021/09/16 01:48:58;;;;;;;8.80;7.93;;;15.80;99.90;;;;;;495131;240;29417;-71
2021/09/16 01:50:59;;;;;;;9.37;7.40;;;15.80;99.90;;;;;;495140;240;28931;-72
2021/09/16 01:53:01;;;;;;;7.77;6.97;;;15.70;99.90;;;;;;495150;240;28831;-72
2021/09/16 01:55:02;;;;;;;7.27;6.47;;;15.80;99.90;;;;;;495169;240;28873;-72
2021/09/16 01:57:03;;;;;;;14.90;9.73;;;15.80;99.90;;;;;;495145;236;28841;-72
2021/09/16 01:59:04;;;;;;;9.90;8.50;;;15.60;99.90;;;;;;495167;240;28903;-69
2021/09/16 02:01:06;;;;;;;8.70;7.80;;;15.70;99.90;;;;;;495169;240;28863;-69
2021/09/16 02:03:07;;;;;;;8.70;7.80;;;15.80;99.90;;;;;;495161;240;28613;-70
2021/09/16 02:05:08;;;;;;;12.83;8.43;;;15.70;99.90;;;;;;495189;240;28838;-70
2021/09/16 02:07:09;;;;;;;8.43;7.60;;;15.70;99.90;;;;;;495151;240;29320;-70
2021/09/16 02:09:11;;;;;;;7.97;7.17;;;15.70;99.90;;;;;;495170;240;29335;-70
2021/09/16 02:11:12;;;;;;;7.10;6.40;;;15.80;99.90;;;;;;495137;240;29396;-70
2021/09/16 02:13:13;;;;;;;7.40;6.70;;;15.80;99.90;;;;;;495149;240;28815;-70
2021/09/16 02:15:14;;;;;;;7.47;6.73;;;15.80;99.90;;;;;;495170;240;28801;-72
2021/09/16 02:17:16;;;;;;;6.90;6.30;;;15.80;99.90;;;;;;495140;240;28922;-73
2021/09/16 02:19:17;;;;;;;6.90;6.30;;;15.80;99.90;;;;;;495189;240;28794;-69
2021/09/16 02:21:18;;;;;;;6.80;6.20;;;15.80;99.90;;;;;;495177;240;28868;-69
2021/09/16 02:23:19;;;;;;;6.53;5.93;;;15.80;99.90;;;;;;495195;240;28423;-70
2021/09/16 02:25:21;;;;;;;7.37;6.67;;;15.80;99.90;;;;;;495206;240;28888;-70
2021/09/16 02:27:22;;;;;;;7.67;6.53;;;15.90;99.90;;;;;;495173;240;28900;-70
2021/09/16 02:29:23;;;;;;;6.63;6.03;;;15.90;99.90;;;;;;495157;240;28790;-69
2021/09/16 02:31:24;;;;;;;6.70;6.10;;;15.90;99.90;;;;;;495138;240;29413;-70
2021/09/16 02:33:27;;;;;;;6.37;5.80;;;15.90;99.90;;;;;;495152;240;29406;-69
2021/09/16 02:35:27;;;;;;;7.07;6.00;;;15.90;99.90;;;;;;495124;240;29253;-72
2021/09/16 02:37:28;;;;;;;6.27;5.67;;;15.90;99.90;;;;;;495129;240;28951;-72
2021/09/16 02:39:29;;;;;;;6.83;6.10;;;15.80;99.90;;;;;;495148;240;28900;-72
2021/09/16 02:41:31;;;;;;;9.77;7.57;;;15.80;99.90;;;;;;495160;240;28863;-72
2021/09/16 02:43:32;;;;;;;9.13;7.50;;;15.80;99.90;;;;;;495130;240;28834;-71
2021/09/16 02:45:33;;;;;;;9.70;8.57;;;15.70;99.90;;;;;;495179;240;28815;-72
2021/09/16 02:47:34;;;;;;;8.13;7.33;;;15.70;99.90;;;;;;495127;240;28897;-70
2021/09/16 02:49:36;;;;;;;11.47;8.77;;;15.80;99.90;;;;;;495161;240;28810;-71
2021/09/16 02:51:37;;;;;;;11.73;9.47;;;15.70;99.90;;;;;;495158;240;28923;-70
2021/09/16 02:53:38;;;;;;;12.17;9.17;;;15.70;99.90;;;;;;495164;240;29839;-70
2021/09/16 02:55:39;;;;;;;9.23;8.23;;;15.70;99.90;;;;;;495161;240;29332;-70
2021/09/16 02:57:41;;;;;;;10.13;9.00;;;15.70;99.90;;;;;;495121;240;29420;-72
2021/09/16 02:59:42;;;;;;;7.73;7.03;;;15.70;99.90;;;;;;495175;240;28827;-72
2021/09/16 03:01:43;;;;;;;9.27;8.37;;;15.70;99.90;;;;;;495161;240;28942;-72
2021/09/16 03:03:44;;;;;;;8.30;7.00;;;15.70;99.90;;;;;;495169;240;28835;-71
2021/09/16 03:05:49;;;;;;;7.53;6.83;;;15.70;99.90;;;;;;495179;240;28806;-70
2021/09/16 03:07:50;;;;;;;7.20;6.50;;;15.70;99.90;;;;;;495144;240;29364;-70
2021/09/16 03:09:51;;;;;;;7.10;6.30;;;15.80;99.90;;;;;;495143;240;29421;-70
2021/09/16 03:11:52;;;;;;;7.80;7.10;;;15.80;99.90;;;;;;495126;240;28885;-70
2021/09/16 03:13:54;;;;;;;7.43;6.73;;;15.80;99.90;;;;;;495107;240;28810;-70
2021/09/16 03:15:55;;;;;;;7.97;7.17;;;15.80;99.90;;;;;;495141;240;28852;-69
2021/09/16 03:17:56;;;;;;;13.23;10.20;;;15.80;99.90;;;;;;495137;240;28881;-69
2021/09/16 03:19:57;;;;;;;12.93;9.53;;;15.60;99.90;;;;;;495156;240;28851;-70
2021/09/16 03:21:59;;;;;;;14.83;12.23;;;15.60;99.90;;;;;;495142;240;28812;-70
2021/09/16 03:24:00;;;;;;;13.00;10.93;;;15.50;99.90;;;;;;495171;240;28886;-70
2021/09/16 03:26:01;;;;;;;14.47;10.90;;;15.50;99.90;;;;;;495157;240;29348;-72
2021/09/16 03:28:03;;;;;;;15.83;12.07;;;15.50;99.90;;;;;;495102;240;29239;-72
2021/09/16 03:30:04;;;;;;;18.63;13.00;;;15.40;99.90;;;;;;495163;240;28780;-72
2021/09/16 03:32:05;;;;;;;16.57;12.87;;;15.40;99.90;;;;;;495100;240;28842;-72
2021/09/16 03:34:06;;;;;;;14.50;11.47;;;15.40;99.90;;;;;;495137;240;28817;-72
2021/09/16 03:36:08;;;;;;;13.60;10.80;;;15.40;99.90;;;;;;495017;240;28858;-72
2021/09/16 03:38:09;;;;;;;14.00;12.03;;;15.40;99.90;;;;;;495112;240;28806;-72
2021/09/16 03:40:10;;;;;;;12.83;10.70;;;15.40;99.90;;;;;;479270;248;29404;-72
2021/09/16 03:42:11;;;;;;;16.00;11.63;;;15.40;99.90;;;;;;495117;236;29490;-72
2021/09/16 03:44:13;;;;;;;13.87;11.67;;;15.40;99.90;;;;;;495139;240;28813;-72
2021/09/16 03:46:14;;;;;;;13.60;11.33;;;15.40;99.90;;;;;;495152;240;28858;-72
2021/09/16 03:48:15;;;;;;;13.93;11.60;;;15.40;99.90;;;;;;494413;240;28790;-71
2021/09/16 03:50:16;;;;;;;14.70;11.63;;;15.40;99.90;;;;;;493164;241;28801;-72
2021/09/16 03:52:18;;;;;;;13.43;11.00;;;15.40;99.90;;;;;;476884;249;28667;-72
2021/09/16 03:54:19;;;;;;;12.03;10.37;;;15.40;99.90;;;;;;485542;245;29224;-71
2021/09/16 03:56:20;;;;;;;12.10;9.30;;;15.40;99.90;;;;;;477274;249;29478;-72
2021/09/16 03:58:21;;;;;;;10.70;8.60;;;15.40;99.90;;;;;;478987;248;28673;-72
2021/09/16 04:00:23;;;;;;;9.00;8.10;;;15.50;99.90;;;;;;485199;245;28883;-72
2021/09/16 04:02:24;;;;;;;8.87;7.70;;;15.50;99.90;;;;;;485184;245;28447;-72
2021/09/16 04:04:25;;;;;;;8.20;7.40;;;15.50;99.90;;;;;;485207;245;28559;-71
2021/09/16 04:06:26;;;;;;;9.30;8.30;;;15.50;99.90;;;;;;485199;245;28976;-69
2021/09/16 04:08:28;;;;;;;10.20;8.90;;;15.50;99.90;;;;;;485188;243;28618;-70
2021/09/16 04:10:29;;;;;;;10.60;9.00;;;15.40;99.90;;;;;;485192;245;28600;-70
2021/09/16 04:12:30;;;;;;;9.40;7.97;;;15.40;99.90;;;;;;485117;245;28916;-72
2021/09/16 04:14:31;;;;;;;9.73;8.43;;;15.50;99.90;;;;;;485154;245;29299;-72
2021/09/16 04:16:33;;;;;;;13.53;11.20;;;15.40;99.90;;;;;;485142;245;29470;-70
2021/09/16 04:18:34;;;;;;;13.37;11.20;;;15.30;99.90;;;;;;485181;245;28327;-72
2021/09/16 04:20:35;;;;;;;10.90;9.30;;;15.30;99.90;;;;;;485146;245;28878;-71
2021/09/16 04:22:36;;;;;;;11.57;9.10;;;15.40;99.90;;;;;;485085;245;28902;-70
2021/09/16 04:24:38;;;;;;;10.53;8.53;;;15.30;99.90;;;;;;485180;245;28581;-71
2021/09/16 04:26:39;;;;;;;11.23;9.47;;;15.30;99.90;;;;;;485217;245;28316;-70
2021/09/16 04:28:40;;;;;;;11.73;9.93;;;15.20;99.90;;;;;;485198;245;28853;-70
2021/09/16 04:30:41;;;;;;;16.93;12.50;;;15.20;99.90;;;;;;485174;245;28911;-69
2021/09/16 04:32:43;;;;;;;14.93;11.30;;;15.10;99.90;;;;;;485141;245;29425;-70
2021/09/16 04:34:44;;;;;;;15.40;11.13;;;15.10;99.90;;;;;;485186;245;29021;-70
2021/09/16 04:36:45;;;;;;;17.07;13.10;;;15.10;99.90;;;;;;485194;245;28583;-72
2021/09/16 04:38:46;;;;;;;15.90;12.30;;;15.10;99.90;;;;;;485165;245;28862;-71
2021/09/16 04:40:48;;;;;;;12.30;9.53;;;15.10;99.90;;;;;;485166;245;28693;-71
2021/09/16 04:42:49;;;;;;;12.87;9.60;;;15.10;99.90;;;;;;485172;245;29024;-72
2021/09/16 04:44:50;;;;;;;11.03;9.30;;;15.10;99.90;;;;;;485193;245;28570;-70
2021/09/16 04:46:52;;;;;;;9.70;8.37;;;15.20;99.90;;;;;;485178;245;29448;-72
2021/09/16 04:48:53;;;;;;;9.27;8.27;;;15.20;99.90;;;;;;485171;245;28995;-72
2021/09/16 04:50:54;;;;;;;10.13;7.70;;;15.20;99.90;;;;;;485172;245;29084;-72
2021/09/16 04:52:55;;;;;;;7.60;6.80;;;15.30;99.90;;;;;;485142;245;28480;-69
2021/09/16 04:54:57;;;;;;;8.17;7.30;;;15.30;99.90;;;;;;485145;245;28534;-70
2021/09/16 04:56:58;;;;;;;11.07;8.30;;;15.20;99.90;;;;;;485183;245;28694;-70
2021/09/16 04:58:59;;;;;;;8.37;7.47;;;15.20;99.90;;;;;;485169;245;28442;-70
2021/09/16 05:01:01;;;;;;;8.93;7.97;;;15.30;99.90;;;;;;485128;245;28936;-70
2021/09/16 05:03:02;;;;;;;8.13;7.30;;;15.20;99.90;;;;;;485180;243;28911;-71
2021/09/16 05:05:03;;;;;;;7.93;7.23;;;15.20;99.90;;;;;;485168;243;28867;-69
2021/09/16 05:07:04;;;;;;;8.50;7.70;;;15.20;99.90;;;;;;485179;245;28537;-70
2021/09/16 05:09:05;;;;;;;9.13;8.13;;;15.20;99.90;;;;;;485160;245;28453;-71
2021/09/16 05:11:07;;;;;;;8.53;7.63;;;15.20;99.90;;;;;;485159;245;28870;-69
2021/09/16 05:13:08;;;;;;;7.70;7.00;;;15.20;99.90;;;;;;485144;240;29083;-69
2021/09/16 05:15:09;;;;;;;9.37;7.67;;;15.20;99.90;;;;;;485164;245;29478;-72
2021/09/16 05:17:10;;;;;;;8.77;7.73;;;15.20;99.90;;;;;;485187;245;28585;-71
2021/09/16 05:19:12;;;;;;;8.97;7.90;;;15.20;99.90;;;;;;485171;245;28594;-71
2021/09/16 05:21:13;;;;;;;9.47;8.50;;;15.30;99.90;;;;;;485191;245;28587;-72
2021/09/16 05:23:14;;;;;;;10.13;8.90;;;15.20;99.90;;;;;;485185;245;28899;-71
2021/09/16 05:25:16;;;;;;;10.87;9.40;;;15.20;99.90;;;;;;485199;245;28515;-71
2021/09/16 05:27:19;;;;;;;10.73;9.30;;;15.10;99.90;;;;;;485206;245;28241;-72
2021/09/16 05:29:18;;;;;;;8.67;7.80;;;15.20;99.90;;;;;;485094;245;28347;-70
2021/09/16 05:31:19;;;;;;;10.20;9.03;;;15.20;99.90;;;;;;485225;245;28542;-69
2021/09/16 05:33:20;;;;;;;8.87;7.97;;;15.20;99.90;;;;;;485208;245;29049;-72
2021/09/16 05:35:22;;;;;;;11.47;9.30;;;15.20;99.90;;;;;;485015;245;29449;-71
2021/09/16 05:37:23;;;;;;;11.20;10.00;;;15.20;99.90;;;;;;485215;245;28881;-69
2021/09/16 05:39:24;;;;;;;10.47;8.97;;;15.20;99.90;;;;;;485158;245;28484;-69
2021/09/16 05:41:25;;;;;;;11.17;9.70;;;15.20;99.90;;;;;;485250;245;29016;-69
2021/09/16 05:43:27;;;;;;;11.20;9.87;;;15.20;99.90;;;;;;485219;245;28511;-72
2021/09/16 05:45:28;;;;;;;9.43;8.53;;;15.10;99.90;;;;;;485216;245;28492;-70
2021/09/16 05:47:29;;;;;;;9.67;8.67;;;15.20;99.90;;;;;;485231;245;28608;-72
2021/09/16 05:49:30;;;;;;;10.83;8.93;;;15.20;99.90;;;;;;485153;245;28418;-69
2021/09/16 05:51:32;;;;;;;8.63;7.73;;;15.10;99.90;;;;;;485212;245;29072;-70
2021/09/16 05:53:33;;;;;;;11.23;8.53;;;15.10;99.90;;;;;;485195;245;29379;-70
2021/09/16 05:55:38;;;;;;;11.70;8.67;;;15.10;99.90;;;;;;485190;245;29025;-71
2021/09/16 05:57:35;;;;;;;10.87;8.93;;;15.10;99.90;;;;;;484993;245;28574;-70
2021/09/16 05:59:37;;;;;;;11.23;9.30;;;15.10;99.90;;;;;;485181;245;28997;-72
2021/09/16 06:01:38;;;;;;;11.00;8.27;;;15.10;99.90;;;;;;485224;245;28482;-70
2021/09/16 06:03:39;;;;;;;14.03;10.70;;;15.10;99.90;;;;;;485220;245;28711;-70
2021/09/16 06:05:40;;;;;;;11.90;9.67;;;15.00;99.90;;;;;;485213;245;28325;-72
2021/09/16 06:07:42;;;;;;;14.60;10.23;;;15.00;99.90;;;;;;485192;245;28434;-70
2021/09/16 06:09:43;;;;;;;11.80;9.50;;;14.90;99.90;;;;;;485185;245;29325;-72
2021/09/16 06:11:44;;;;;;;17.37;11.93;;;14.90;99.90;;;;;;485203;245;29062;-70
2021/09/16 06:13:45;;;;;;;14.93;9.70;;;14.80;99.90;;;;;;485198;245;28615;-72
2021/09/16 06:15:47;;;;;;;13.63;9.10;;;14.90;99.90;;;;;;485183;245;28591;-70
2021/09/16 06:17:48;;;;;;;10.37;8.20;;;14.90;99.90;;;;;;485223;245;28601;-70
2021/09/16 06:19:49;;;;;;;9.73;7.50;;;14.90;99.90;;;;;;485199;245;28874;-70
2021/09/16 06:21:50;;;;;;;9.20;7.67;;;15.00;99.90;;;;;;485173;245;28296;-70
2021/09/16 06:23:52;;;;;;;9.93;7.47;;;15.10;99.90;;;;;;485139;245;28864;-70
2021/09/16 06:25:53;;;;;;;8.83;7.93;;;15.10;99.90;;;;;;485138;245;28647;-72
2021/09/16 06:27:54;;;;;;;10.20;8.60;;;15.10;99.90;;;;;;485216;245;28576;-72
2021/09/16 06:29:55;;;;;;;9.73;8.60;;;15.00;99.90;;;;;;485141;245;29285;-72
2021/09/16 06:31:57;;;;;;;9.40;8.40;;;15.00;99.90;;;;;;485186;245;28966;-71
2021/09/16 06:33:58;;;;;;;7.60;6.90;;;15.00;99.90;;;;;;485200;245;29101;-72
2021/09/16 06:35:59;;;;;;;9.20;7.50;;;15.10;99.90;;;;;;485193;245;28473;-69
2021/09/16 06:38:00;;;;;;;7.90;7.10;;;15.10;99.90;;;;;;485181;245;28474;-72
2021/09/16 06:40:02;;;;;;;15.77;7.87;;;15.10;99.90;;;;;;485171;245;28580;-72
2021/09/16 06:42:03;;;;;;;7.83;7.03;;;15.20;99.90;;;;;;485209;244;28437;-71
2021/09/16 06:44:04;;;;;;;7.53;6.83;;;15.20;99.90;;;;;;485210;245;28911;-72
2021/09/16 06:46:05;;;;;;;9.53;6.87;;;15.30;99.90;;;;;;485213;245;28650;-71
2021/09/16 06:48:07;;;;;;;7.37;6.67;;;15.20;99.90;;;;;;485221;245;28474;-71
2021/09/16 06:50:08;;;;;;;6.90;6.27;;;15.20;99.90;;;;;;485189;245;28598;-70
2021/09/16 06:52:09;;;;;;;12.20;8.63;;;15.20;99.90;;;;;;485228;245;28435;-70
2021/09/16 06:54:10;;;;;;;9.40;7.97;;;15.10;99.90;;;;;;485205;245;29452;-70
2021/09/16 06:56:12;;;;;;;8.83;7.53;;;15.10;99.90;;;;;;485222;245;29133;-70
2021/09/16 06:58:13;;;;;;;9.77;8.30;;;15.10;99.90;;;;;;485215;245;28781;-70
2021/09/16 07:00:15;;;;;;;9.10;7.77;;;15.10;99.90;;;;;;485211;245;28590;-71
2021/09/16 07:02:15;;;;;;;10.80;8.00;;;15.10;99.90;;;;;;485230;245;28955;-71
2021/09/16 07:04:17;;;;;;;8.10;7.30;;;15.10;99.90;;;;;;485197;245;28673;-72
2021/09/16 07:06:18;;;;;;;8.73;7.83;;;15.10;99.90;;;;;;485213;245;28513;-72
2021/09/16 07:08:20;;;;;;;7.20;6.50;;;;;;;;;;485127;245;28892;-72
2021/09/16 07:10:21;;;;;;;7.67;6.87;;;15.10;99.90;;;;;;485171;245;27565;-72
2021/09/16 07:12:23;;;;;;;7.90;7.10;;;15.10;99.90;;;;;;485207;245;28900;-71
2021/09/16 07:14:25;;;;;;;9.90;6.97;;;15.10;99.90;;;;;;485114;245;28965;-71
2021/09/16 07:16:25;;;;;;;12.33;7.00;;;15.10;99.90;;;;;;485133;245;29164;-72
2021/09/16 07:18:26;;;;;;;7.10;6.40;;;15.10;99.90;;;;;;485193;245;29386;-70
2021/09/16 07:20:28;;;;;;;14.07;6.53;;;15.10;99.90;;;;;;485173;245;29334;-70
2021/09/16 07:22:29;;;;;;;9.83;7.20;;;15.10;99.90;;;;;;485183;245;28978;-70
2021/09/16 07:24:30;;;;;;;10.70;7.60;;;15.00;99.90;;;;;;485203;245;28856;-70
2021/09/16 07:26:31;;;;;;;7.77;6.90;;;15.00;99.90;;;;;;485190;245;28894;-71
2021/09/16 07:28:35;;;;;;;9.23;7.10;;;15.00;99.90;;;;;;485264;245;28867;-69
2021/09/16 07:30:34;;;;;;;10.00;7.10;;;15.10;99.90;;;;;;485038;245;28948;-72
2021/09/16 07:32:35;;;;;;;9.73;7.53;;;15.10;99.90;;;;;;485207;245;28903;-72
2021/09/16 07:34:36;;;;;;;9.37;7.80;;;15.00;99.90;;;;;;485186;245;28848;-70
2021/09/16 07:36:39;;;;;;;10.40;7.17;;;15.00;99.90;;;;;;485178;245;28898;-70
2021/09/16 07:38:39;;;;;;;9.03;7.10;;;15.00;99.90;;;;;;485139;245;29824;-70
2021/09/16 07:40:40;;;;;;;9.67;7.70;;;15.00;99.90;;;;;;485190;245;29367;-71
2021/09/16 07:42:41;;;;;;;9.80;7.67;;;15.00;99.90;;;;;;485192;245;29051;-71
2021/09/16 07:44:43;;;;;;;8.93;8.03;;;15.00;99.90;;;;;;485171;245;28460;-71
2021/09/16 07:46:44;;;;;;;11.60;8.73;;;15.00;99.90;;;;;;485193;245;28915;-72
2021/09/16 07:48:45;;;;;;;10.00;7.13;;;15.00;99.90;;;;;;485201;245;28887;-72
2021/09/16 07:50:47;;;;;;;7.83;7.13;;;15.10;99.90;;;;;;485175;245;28640;-71
2021/09/16 07:52:48;;;;;;;8.87;7.97;;;15.10;99.90;;;;;;485104;245;28908;-71
2021/09/16 07:54:49;;;;;;;8.87;7.17;;;15.10;99.90;;;;;;485177;245;28899;-71
2021/09/16 07:56:50;;;;;;;9.93;7.07;;;15.20;99.90;;;;;;485157;245;28934;-71
2021/09/16 07:58:51;;;;;;;8.00;7.03;;;15.20;99.90;;;;;;485158;245;28663;-71
2021/09/16 08:00:53;;;;;;;7.17;6.50;;;15.30;99.90;;;;;;485106;245;28794;-71
2021/09/16 08:02:54;;;;;;;12.70;8.27;;;15.20;99.90;;;;;;484982;245;29374;-71
2021/09/16 08:04:55;;;;;;;11.60;9.30;;;15.10;99.90;;;;;;485017;243;28993;-72
2021/09/16 08:06:57;;;;;;;10.90;8.00;;;;;;;;;;485115;245;29017;-71
2021/09/16 08:08:59;;;;;;;7.70;7.00;;;;;;;;;;485151;245;27573;-71
2021/09/16 08:11:03;;;;;;;10.70;7.97;;;;;;;;;;485146;245;27549;-71
2021/09/16 08:13:04;;;;;;;9.93;8.87;;;15.00;99.90;;;;;;485149;245;26912;-71
2021/09/16 08:15:05;;;;;;;12.20;9.17;;;15.00;99.90;;;;;;485155;245;29416;-71
2021/09/16 08:17:06;;;;;;;13.33;9.97;;;15.00;99.90;;;;;;485151;245;29471;-71
2021/09/16 08:19:08;;;;;;;10.67;9.10;;;14.80;99.90;;;;;;485181;245;28850;-71
2021/09/16 08:21:11;;;;;;;9.23;8.30;;;15.00;99.90;;;;;;485153;245;28604;-72
2021/09/16 08:23:10;;;;;;;10.47;8.13;;;15.10;99.90;;;;;;485066;245;28265;-71
2021/09/16 08:25:11;;;;;;;11.33;9.37;;;15.00;99.90;;;;;;485179;245;28446;-72
2021/09/16 08:27:13;;;;;;;10.40;8.70;;;14.90;99.90;;;;;;485214;245;28858;-71
2021/09/16 08:29:14;;;;;;;8.90;7.07;;;15.00;99.90;;;;;;485203;245;28492;-71
2021/09/16 08:31:15;;;;;;;8.93;7.07;;;15.20;99.90;;;;;;485200;245;28890;-71
2021/09/16 08:33:16;;;;;;;8.20;7.40;;;15.20;99.90;;;;;;485192;245;29400;-71
2021/09/16 08:35:19;;;;;;;9.80;8.30;;;15.10;99.90;;;;;;485182;245;29066;-71
2021/09/16 08:37:19;;;;;;;10.07;7.73;;;15.10;99.90;;;;;;485093;245;29409;-71
2021/09/16 08:39:20;;;;;;;10.60;7.77;;;15.00;99.90;;;;;;485161;245;28641;-71
2021/09/16 08:41:21;;;;;;;10.90;8.67;;;15.00;99.90;;;;;;485194;245;28609;-71
2021/09/16 08:43:23;;;;;;;13.30;6.93;;;15.10;99.90;;;;;;485196;245;28587;-71
2021/09/16 08:45:24;;;;;;;9.40;7.57;;;15.20;99.90;;;;;;485206;245;28890;-72
2021/09/16 08:47:25;;;;;;;12.87;9.27;;;15.20;99.90;;;;;;485178;245;28899;-72
2021/09/16 08:49:26;;;;;;;10.07;8.00;;;15.00;99.90;;;;;;485195;245;28859;-72
2021/09/16 08:51:28;;;;;;;9.47;6.27;;;15.10;99.90;;;;;;485165;245;28899;-69
2021/09/16 08:53:29;;;;;;;8.50;6.70;;;15.40;99.90;;;;;;485170;245;29412;-72
2021/09/16 08:55:30;;;;;;;10.00;6.70;;;15.40;99.90;;;;;;485198;245;29317;-72
2021/09/16 08:57:31;;;;;;;9.33;7.90;;;15.40;99.90;;;;;;485207;245;29382;-71
2021/09/16 08:59:33;;;;;;;8.63;6.27;;;15.40;99.90;;;;;;485210;245;28942;-71
2021/09/16 09:01:34;;;;;;;14.77;8.77;;;15.50;99.90;;;;;;485172;245;28998;-70
2021/09/16 09:03:35;;;;;;;9.43;7.80;;;15.30;99.90;;;;;;485216;245;28899;-69
2021/09/16 09:05:36;;;;;;;7.10;6.40;;;15.30;99.90;;;;;;485208;245;28955;-70
2021/09/16 09:07:38;;;;;;;8.97;7.70;;;15.60;99.90;;;;;;485213;245;29031;-72
2021/09/16 09:09:39;;;;;;;9.80;7.90;;;15.60;99.90;;;;;;485240;245;28923;-70
2021/09/16 09:11:40;;;;;;;14.43;8.50;;;15.60;99.90;;;;;;485203;245;28889;-69
2021/09/16 09:13:43;;;;;;;9.53;7.67;;;15.60;99.90;;;;;;485205;245;28898;-69
2021/09/16 09:15:43;;;;;;;9.37;8.17;;;15.80;99.90;;;;;;485110;245;29304;-71
2021/09/16 09:17:44;;;;;;;9.47;6.57;;;15.80;99.90;;;;;;485191;245;29387;-72
2021/09/16 09:19:45;;;;;;;8.60;7.70;;;16.00;99.90;;;;;;485232;245;29384;-72
2021/09/16 09:21:46;;;;;;;8.30;7.20;;;16.10;99.90;;;;;;485213;245;28915;-72
2021/09/16 09:23:48;;;;;;;7.63;6.83;;;16.10;99.90;;;;;;485210;245;28901;-72
2021/09/16 09:25:49;;;;;;;10.70;8.70;;;16.00;99.90;;;;;;485204;245;28970;-72
2021/09/16 09:27:50;;;;;;;11.60;8.57;;;15.70;99.90;;;;;;485183;245;28920;-72
2021/09/16 09:29:51;;;;;;;9.63;7.70;;;15.70;99.90;;;;;;485190;245;28958;-72
2021/09/16 09:31:53;;;;;;;7.77;5.80;;;15.70;99.90;;;;;;485155;245;28890;-72
2021/09/16 09:33:54;;;;;;;6.87;6.00;;;15.90;99.90;;;;;;485206;245;28930;-72
2021/09/16 09:35:55;;;;;;;7.10;5.43;;;16.00;99.90;;;;;;485197;244;28855;-71
2021/09/16 09:37:56;;;;;;;7.47;6.77;;;16.20;99.90;;;;;;485196;245;29401;-72
2021/09/16 09:39:58;;;;;;;7.40;6.40;;;16.10;99.90;;;;;;485214;245;29308;-71
2021/09/16 09:41:59;;;;;;;7.23;6.53;;;16.30;99.90;;;;;;485181;245;29406;-72
2021/09/16 09:44:00;;;;;;;6.63;5.90;;;16.30;99.90;;;;;;485204;245;29418;-71
2021/09/16 09:46:01;;;;;;;8.03;5.70;;;16.40;99.90;;;;;;485215;245;28858;-72
2021/09/16 09:48:03;;;;;;;6.00;5.40;;;16.40;99.90;;;;;;485215;245;28861;-72
2021/09/16 09:50:04;;;;;;;7.33;5.43;;;16.50;99.90;;;;;;485226;245;28969;-71
2021/09/16 09:52:05;;;;;;;5.10;4.70;;;16.50;99.90;;;;;;485225;245;28941;-71
2021/09/16 09:54:06;;;;;;;6.30;5.70;;;16.50;99.90;;;;;;485215;245;28893;-71
2021/09/16 09:56:08;;;;;;;7.07;6.40;;;16.30;99.90;;;;;;485232;245;28850;-71
2021/09/16 09:58:09;;;;;;;7.07;6.07;;;16.30;99.90;;;;;;485200;245;29007;-71
2021/09/16 10:00:10;;;;;;;6.13;5.60;;;16.20;99.90;;;;;;485201;245;28921;-70
2021/09/16 10:02:11;;;;;;;6.20;5.60;;;16.30;99.90;;;;;;485189;245;28874;-70
2021/09/16 10:04:13;;;;;;;5.90;5.40;;;16.30;99.90;;;;;;485203;245;29342;-70
2021/09/16 10:06:14;;;;;;;8.10;6.13;;;16.20;99.90;;;;;;485206;245;29306;-71
2021/09/16 10:08:15;;;;;;;5.70;5.07;;;16.20;99.90;;;;;;485212;245;29383;-69
2021/09/16 10:10:16;;;;;;;6.37;4.60;;;16.30;99.90;;;;;;485206;245;28924;-69
2021/09/16 10:12:18;;;;;;;6.20;5.00;;;16.30;99.90;;;;;;485201;245;28960;-69
2021/09/16 10:14:19;;;;;;;4.97;4.53;;;16.40;99.90;;;;;;485189;245;28984;-69
2021/09/16 10:16:20;;;;;;;5.83;4.83;;;16.40;99.90;;;;;;485221;245;28941;-70
2021/09/16 10:18:21;;;;;;;4.80;4.40;;;16.60;99.90;;;;;;485193;245;28917;-71
2021/09/16 10:20:23;;;;;;;5.77;4.07;;;16.90;99.90;;;;;;485229;245;29242;-71
2021/09/16 10:22:24;;;;;;;4.00;3.70;;;17.00;99.90;;;;;;485246;245;28916;-71
2021/09/16 10:24:25;;;;;;;4.87;4.47;;;17.00;99.90;;;;;;485248;245;28891;-71
2021/09/16 10:26:26;;;;;;;3.93;3.57;;;17.10;99.90;;;;;;485218;245;28861;-71
2021/09/16 10:28:28;;;;;;;3.93;3.30;;;17.20;99.90;;;;;;485244;245;29418;-72